createdAt,value
2023-05-05T00:01:34.994Z,10.88
2023-05-05T00:04:02.386Z,9.25
2023-05-05T00:06:29.723Z,9.73
2023-05-05T00:08:57.035Z,10.77
2023-05-05T00:11:25.340Z,16.80
2023-05-05T00:13:52.635Z,11.85
2023-05-05T00:16:20.095Z,10.45
2023-05-05T00:18:48.015Z,12.20
2023-05-05T00:21:15.810Z,11.53
2023-05-05T00:23:43.142Z,10.70
2023-05-05T00:26:10.460Z,11.30
2023-05-05T00:28:38.648Z,13.05
2023-05-05T00:31:06.456Z,14.48
2023-05-05T00:33:33.833Z,12.53
2023-05-05T00:36:01.221Z,11.63
2023-05-05T00:38:28.874Z,12.27
2023-05-05T00:40:56.346Z,12.18
2023-05-05T00:43:23.954Z,15.05
2023-05-05T00:45:54.847Z,11.77
2023-05-05T00:48:24.422Z,12.65
2023-05-05T00:50:51.769Z,11.63
2023-05-05T00:53:19.212Z,12.63
2023-05-05T00:55:46.955Z,10.45
2023-05-05T00:58:14.696Z,11.67
2023-05-05T01:00:42.087Z,12.00
2023-05-05T01:03:10.142Z,8.75
2023-05-05T01:05:46.678Z,8.20
2023-05-05T01:08:32.907Z,8.02
2023-05-05T01:11:04.015Z,7.13
2023-05-05T01:13:50.562Z,8.63
2023-05-05T01:16:25.845Z,8.75
2023-05-05T01:19:01.833Z,7.43
2023-05-05T01:21:43.927Z,6.57
2023-05-05T01:24:23.399Z,7.83
2023-05-05T01:27:06.253Z,6.82
2023-05-05T01:29:48.674Z,7.05
2023-05-05T01:32:19.082Z,6.88
2023-05-05T01:34:57.189Z,7.03
2023-05-05T01:37:27.724Z,6.43
2023-05-05T01:39:58.281Z,7.57
2023-05-05T01:42:26.766Z,5.07
2023-05-05T01:44:54.969Z,5.47
2023-05-05T01:47:23.324Z,6.00
2023-05-05T01:49:52.991Z,6.23
2023-05-05T01:52:20.728Z,7.55
2023-05-05T01:54:49.540Z,6.03
2023-05-05T01:57:17.788Z,5.55
2023-05-05T01:59:45.044Z,4.72
2023-05-05T02:02:13.725Z,6.33
2023-05-05T02:04:45.018Z,6.50
2023-05-05T02:07:16.180Z,7.10
2023-05-05T02:09:44.642Z,6.07
2023-05-05T02:12:12.695Z,7.45
2023-05-05T02:14:41.153Z,6.17
2023-05-05T02:17:08.618Z,6.43
2023-05-05T02:19:43.723Z,7.75
2023-05-05T02:22:12.328Z,7.05
2023-05-05T02:24:39.756Z,6.97
2023-05-05T02:27:08.103Z,7.47
2023-05-05T02:29:36.451Z,6.10
2023-05-05T02:32:06.847Z,6.28
2023-05-05T02:34:36.765Z,7.00
2023-05-05T02:37:10.739Z,7.75
2023-05-05T02:39:46.076Z,6.67
2023-05-05T02:42:19.731Z,6.88
2023-05-05T02:44:48.853Z,6.13
2023-05-05T02:47:16.555Z,5.45
2023-05-05T02:49:44.100Z,5.60
2023-05-05T02:52:11.668Z,5.47
2023-05-05T02:54:40.784Z,6.25
2023-05-05T02:57:16.398Z,5.82
2023-05-05T03:00:03.959Z,7.95
2023-05-05T03:02:39.714Z,7.28
2023-05-05T03:05:10.859Z,6.70
2023-05-05T03:08:01.705Z,6.60
2023-05-05T03:10:40.851Z,6.53
2023-05-05T03:13:10.251Z,6.00
2023-05-05T03:15:45.493Z,5.28
2023-05-05T03:18:15.541Z,5.53
2023-05-05T03:20:47.179Z,7.47
2023-05-05T03:23:20.830Z,3.63
2023-05-05T03:25:50.685Z,4.53
2023-05-05T03:28:28.876Z,6.18
2023-05-05T03:30:58.974Z,3.57
2023-05-05T03:33:26.621Z,4.97
2023-05-05T03:35:56.046Z,4.00
2023-05-05T03:38:23.519Z,4.45
2023-05-05T03:40:50.988Z,6.22
2023-05-05T03:43:21.360Z,6.77
2023-05-05T03:45:50.541Z,4.18
2023-05-05T03:48:18.427Z,5.80
2023-05-05T03:50:46.380Z,5.93
2023-05-05T03:53:14.861Z,6.50
2023-05-05T03:55:43.156Z,6.60
2023-05-05T03:58:11.568Z,6.97
2023-05-05T04:00:38.917Z,5.80
2023-05-05T04:03:06.650Z,5.78
2023-05-05T04:05:34.756Z,7.13
2023-05-05T04:08:03.340Z,7.00
2023-05-05T04:10:31.079Z,9.23
2023-05-05T04:12:58.907Z,6.70
2023-05-05T04:15:26.402Z,7.85
2023-05-05T04:17:54.024Z,8.77
2023-05-05T04:20:21.533Z,8.97
2023-05-05T04:22:50.201Z,9.20
2023-05-05T04:25:18.825Z,8.90
2023-05-05T04:27:47.722Z,8.18
2023-05-05T04:30:15.482Z,9.23
2023-05-05T04:32:42.925Z,8.73
2023-05-05T04:35:11.126Z,9.73
2023-05-05T04:37:38.831Z,10.43
2023-05-05T04:40:06.729Z,10.13
2023-05-05T04:42:36.642Z,11.55
2023-05-05T04:45:04.923Z,12.60
2023-05-05T04:47:32.610Z,8.32
2023-05-05T04:50:00.214Z,10.00
2023-05-05T04:52:28.629Z,10.73
2023-05-05T04:54:56.042Z,12.98
2023-05-05T04:57:23.314Z,13.13
2023-05-05T04:59:50.690Z,9.57
2023-05-05T05:02:18.354Z,14.25
2023-05-05T05:04:45.666Z,9.57
2023-05-05T05:07:15.107Z,9.88
2023-05-05T05:09:42.406Z,9.57
2023-05-05T05:12:09.890Z,12.40
2023-05-05T05:14:38.067Z,11.85
2023-05-05T05:17:07.049Z,13.75
2023-05-05T05:19:34.776Z,11.88
2023-05-05T05:22:02.840Z,12.07
2023-05-05T05:24:32.358Z,13.85
2023-05-05T05:26:59.755Z,14.45
2023-05-05T05:29:27.506Z,16.08
2023-05-05T05:31:55.466Z,14.27
2023-05-05T05:34:23.016Z,13.57
2023-05-05T05:36:50.897Z,14.90
2023-05-05T05:39:18.789Z,17.05
2023-05-05T05:41:46.578Z,15.48
2023-05-05T05:44:14.019Z,20.67
2023-05-05T05:46:41.990Z,17.73
2023-05-05T05:49:09.340Z,17.17
2023-05-05T05:51:36.793Z,16.45
2023-05-05T05:54:04.533Z,16.70
2023-05-05T05:56:31.991Z,16.10
2023-05-05T05:58:59.481Z,14.43
2023-05-05T06:01:27.442Z,19.30
2023-05-05T06:03:54.907Z,17.00
2023-05-05T06:06:22.554Z,16.65
2023-05-05T06:08:50.339Z,15.77
2023-05-05T06:11:17.670Z,15.90
2023-05-05T06:13:45.078Z,17.42
2023-05-05T06:16:12.581Z,17.08
2023-05-05T06:18:42.719Z,19.38
2023-05-05T06:21:10.186Z,16.67
2023-05-05T06:23:37.588Z,16.07
2023-05-05T06:26:07.087Z,22.75
2023-05-05T06:28:34.425Z,18.08
2023-05-05T06:31:01.784Z,16.58
2023-05-05T06:33:29.100Z,15.57
2023-05-05T06:35:56.386Z,17.90
2023-05-05T06:38:23.709Z,14.98
2023-05-05T06:40:51.365Z,17.20
2023-05-05T06:43:18.844Z,17.63
2023-05-05T06:45:53.203Z,17.08
2023-05-05T06:48:20.569Z,15.00
2023-05-05T06:50:47.952Z,13.55
2023-05-05T06:53:15.257Z,13.13
2023-05-05T06:55:44.142Z,15.13
2023-05-05T06:58:11.929Z,15.48
2023-05-05T07:00:42.804Z,14.30
2023-05-05T07:03:10.433Z,11.75
2023-05-05T07:05:37.807Z,12.95
2023-05-05T07:08:05.209Z,15.38
2023-05-05T07:10:33.524Z,12.13
2023-05-05T07:13:01.073Z,12.83
2023-05-05T07:15:29.829Z,9.63
2023-05-05T07:17:57.752Z,12.60
2023-05-05T07:20:25.511Z,13.77
2023-05-05T07:22:52.834Z,11.75
2023-05-05T07:25:20.349Z,12.80
2023-05-05T07:27:47.691Z,9.10
2023-05-05T07:30:18.087Z,10.38
2023-05-05T07:32:46.132Z,11.32
2023-05-05T07:35:13.683Z,14.82
2023-05-05T07:37:41.062Z,11.87
2023-05-05T07:40:08.912Z,10.45
2023-05-05T07:42:36.532Z,12.98
2023-05-05T07:45:04.322Z,13.02
2023-05-05T07:47:31.815Z,9.73
2023-05-05T07:49:59.341Z,9.17
2023-05-05T07:52:43.664Z,10.88
2023-05-05T07:55:13.745Z,9.68
2023-05-05T07:57:41.138Z,8.52
2023-05-05T08:00:09.587Z,8.60
2023-05-05T08:02:41.258Z,9.03
2023-05-05T08:05:09.486Z,9.85
2023-05-05T08:07:41.107Z,9.68
2023-05-05T08:10:12.290Z,8.23
2023-05-05T08:12:40.573Z,8.30
2023-05-05T08:15:08.952Z,9.20
2023-05-05T08:17:50.141Z,5.80
2023-05-05T08:20:18.216Z,5.38
2023-05-05T08:22:46.170Z,7.55
2023-05-05T08:25:14.154Z,9.07
2023-05-05T08:27:42.133Z,10.73
2023-05-05T08:30:09.810Z,7.97
2023-05-05T08:32:38.662Z,5.70
2023-05-05T08:35:06.835Z,7.80
2023-05-05T08:37:34.962Z,8.85
2023-05-05T08:40:02.311Z,10.07
2023-05-05T08:42:38.210Z,9.52
2023-05-05T08:45:07.721Z,9.40
2023-05-05T08:47:35.996Z,9.05
2023-05-05T08:50:05.628Z,8.15
2023-05-05T08:52:39.425Z,9.77
2023-05-05T08:55:14.184Z,9.55
2023-05-05T08:58:09.019Z,11.35
2023-05-05T09:00:36.949Z,10.82
2023-05-05T09:03:05.703Z,9.10
2023-05-05T09:05:33.073Z,10.13
2023-05-05T09:08:01.842Z,9.70
2023-05-05T09:10:29.261Z,11.30
2023-05-05T09:12:56.679Z,11.82
2023-05-05T09:15:23.962Z,9.55
2023-05-05T09:17:51.488Z,8.57
2023-05-05T09:20:18.901Z,5.30
2023-05-05T09:22:46.981Z,6.80
2023-05-05T09:25:15.518Z,10.98
2023-05-05T09:27:45.812Z,10.45
2023-05-05T09:30:16.432Z,9.27
2023-05-05T09:32:44.802Z,9.70
2023-05-05T09:35:12.268Z,12.82
2023-05-05T09:37:39.662Z,10.77
2023-05-05T09:40:09.311Z,4.35
2023-05-05T09:42:40.202Z,5.23
2023-05-05T09:45:19.958Z,6.70
2023-05-05T09:47:48.227Z,3.60
2023-05-05T09:50:18.517Z,2.70
2023-05-05T09:52:58.329Z,3.90
2023-05-05T09:55:25.932Z,3.23
2023-05-05T09:57:53.287Z,3.88
2023-05-05T10:00:21.182Z,3.25
2023-05-05T10:02:48.555Z,3.78
2023-05-05T10:05:17.161Z,3.47
2023-05-05T10:07:45.848Z,4.70
2023-05-05T10:10:14.595Z,4.97
2023-05-05T10:12:42.220Z,4.40
2023-05-05T10:15:10.604Z,4.20
2023-05-05T10:17:38.998Z,3.53
2023-05-05T10:20:08.467Z,3.53
2023-05-05T10:22:36.312Z,3.78
2023-05-05T10:25:13.987Z,3.15
2023-05-05T10:27:47.017Z,4.25
2023-05-05T10:30:34.689Z,2.95
2023-05-05T10:33:30.362Z,5.33
2023-05-05T10:36:00.447Z,3.80
2023-05-05T10:38:30.888Z,6.80
2023-05-05T10:40:58.732Z,4.07
2023-05-05T10:43:26.870Z,5.38
2023-05-05T10:45:54.847Z,5.73
2023-05-05T10:48:25.689Z,4.63
2023-05-05T10:50:55.348Z,4.35
2023-05-05T10:53:37.526Z,8.15
2023-05-05T10:56:26.630Z,5.10
2023-05-05T10:59:00.148Z,6.33
2023-05-05T11:01:32.231Z,6.25
2023-05-05T11:04:18.765Z,9.93
2023-05-05T11:07:04.695Z,7.50
2023-05-05T11:09:32.128Z,4.97
2023-05-05T11:12:03.556Z,4.53
2023-05-05T11:14:31.086Z,9.52
2023-05-05T11:16:58.466Z,8.98
2023-05-05T11:19:44.770Z,6.70
2023-05-05T11:22:12.361Z,10.65
2023-05-05T11:24:42.768Z,10.93
2023-05-05T11:27:10.891Z,8.85
2023-05-05T11:30:07.984Z,5.95
2023-05-05T11:32:36.138Z,12.82
2023-05-05T11:35:04.026Z,8.55
2023-05-05T11:37:31.473Z,6.30
2023-05-05T11:40:17.228Z,8.05
2023-05-05T11:42:44.611Z,9.20
2023-05-05T11:45:22.201Z,6.40
2023-05-05T11:47:49.714Z,8.70
2023-05-05T11:50:21.654Z,8.60
2023-05-05T11:52:49.599Z,7.50
2023-05-05T11:55:21.454Z,9.65
2023-05-05T11:57:48.933Z,14.00
2023-05-05T12:00:16.655Z,10.90
2023-05-05T12:02:44.219Z,11.80
2023-05-05T12:05:11.772Z,10.80
2023-05-05T12:07:39.166Z,9.93
2023-05-05T12:10:07.709Z,9.95
2023-05-05T12:12:36.294Z,9.27
2023-05-05T12:15:04.333Z,8.93
2023-05-05T12:17:39.850Z,12.70
2023-05-05T12:20:08.868Z,10.50
2023-05-05T12:22:36.489Z,11.02
2023-05-05T12:25:05.504Z,5.85
2023-05-05T12:27:32.974Z,6.60
2023-05-05T12:30:16.780Z,5.03
2023-05-05T12:32:44.688Z,4.35
2023-05-05T12:35:12.816Z,6.25
2023-05-05T12:37:40.231Z,6.75
2023-05-05T12:40:08.952Z,7.80
2023-05-05T12:42:40.130Z,7.78
2023-05-05T12:45:08.373Z,5.82
2023-05-05T12:47:36.879Z,9.25
2023-05-05T12:50:04.420Z,8.93
2023-05-05T12:52:41.110Z,8.13
2023-05-05T12:55:08.894Z,7.03
2023-05-05T12:57:36.612Z,7.13
2023-05-05T13:00:14.308Z,7.43
2023-05-05T13:02:41.774Z,4.82
2023-05-05T13:05:09.885Z,6.50
2023-05-05T13:07:37.933Z,4.45
2023-05-05T13:10:10.544Z,4.57
2023-05-05T13:12:37.891Z,6.43
2023-05-05T13:15:05.418Z,5.05
2023-05-05T13:17:34.705Z,5.87
2023-05-05T13:20:02.225Z,3.63
2023-05-05T13:22:29.514Z,5.45
2023-05-05T13:24:56.891Z,4.60
2023-05-05T13:27:24.377Z,5.63
2023-05-05T13:29:51.693Z,4.33
2023-05-05T13:32:19.031Z,3.88
2023-05-05T13:34:46.310Z,2.67
2023-05-05T13:37:13.688Z,3.75
2023-05-05T13:39:41.485Z,5.47
2023-05-05T13:42:08.835Z,3.40
2023-05-05T13:44:36.195Z,4.25
2023-05-05T13:47:03.785Z,2.88
2023-05-05T13:49:31.135Z,3.08
2023-05-05T13:51:58.618Z,2.88
2023-05-05T13:54:26.169Z,2.03
2023-05-05T13:56:53.625Z,1.65
2023-05-05T13:59:21.798Z,1.88
2023-05-05T14:01:49.512Z,1.50
2023-05-05T14:04:16.821Z,3.25
2023-05-05T14:06:44.242Z,2.03
2023-05-05T14:09:11.558Z,1.88
2023-05-05T14:11:38.895Z,4.40
2023-05-05T14:14:06.224Z,4.65
2023-05-05T14:16:33.649Z,2.75
2023-05-05T14:19:01.620Z,5.60
2023-05-05T14:21:28.975Z,3.65
2023-05-05T14:23:56.328Z,2.83
2023-05-05T14:26:23.764Z,4.40
2023-05-05T14:28:51.275Z,3.28
2023-05-05T14:31:18.661Z,3.00
2023-05-05T14:33:46.200Z,3.75
2023-05-05T14:36:14.314Z,2.50
2023-05-05T14:38:43.088Z,2.58
2023-05-05T14:41:10.466Z,3.17
2023-05-05T14:43:37.918Z,2.17
2023-05-05T14:46:06.862Z,2.13
2023-05-05T14:48:34.670Z,2.72
2023-05-05T14:51:02.365Z,2.22
2023-05-05T14:53:29.811Z,1.98
2023-05-05T14:55:57.185Z,2.20
2023-05-05T14:58:24.827Z,2.47
2023-05-05T15:00:55.323Z,4.35
2023-05-05T15:03:22.734Z,2.97
2023-05-05T15:05:50.120Z,1.73
2023-05-05T15:08:19.228Z,1.80
2023-05-05T15:10:46.797Z,1.52
2023-05-05T15:13:14.502Z,1.95
2023-05-05T15:15:41.912Z,2.95
2023-05-05T15:18:09.278Z,1.90
2023-05-05T15:20:36.578Z,2.13
2023-05-05T15:23:04.260Z,2.55
2023-05-05T15:25:31.591Z,1.73
2023-05-05T15:28:00.878Z,2.40
2023-05-05T15:30:28.486Z,1.60
2023-05-05T15:32:55.957Z,2.60
2023-05-05T15:35:25.571Z,5.20
2023-05-05T15:37:54.572Z,2.67
2023-05-05T15:40:22.031Z,4.43
2023-05-05T15:42:52.272Z,2.55
2023-05-05T15:45:19.646Z,1.67
2023-05-05T15:47:47.894Z,1.90
2023-05-05T15:50:15.881Z,2.00
2023-05-05T15:52:43.398Z,1.45
2023-05-05T15:55:11.185Z,1.73
2023-05-05T15:57:41.436Z,1.60
2023-05-05T16:00:09.434Z,2.08
2023-05-05T16:02:38.106Z,2.50
2023-05-05T16:05:05.808Z,2.10
2023-05-05T16:07:33.200Z,4.03
2023-05-05T16:10:00.568Z,2.60
2023-05-05T16:12:27.838Z,4.57
2023-05-05T16:14:55.668Z,1.67
2023-05-05T16:17:23.030Z,1.77
2023-05-05T16:19:50.902Z,1.50
2023-05-05T16:22:18.411Z,2.67
2023-05-05T16:24:45.838Z,1.63
2023-05-05T16:27:13.439Z,1.80
2023-05-05T16:29:41.158Z,2.55
2023-05-05T16:32:08.448Z,1.58
2023-05-05T16:34:35.890Z,1.47
2023-05-05T16:37:03.452Z,1.55
2023-05-05T16:39:33.028Z,2.38
2023-05-05T16:42:00.379Z,2.65
2023-05-05T16:44:27.730Z,4.72
2023-05-05T16:46:54.947Z,1.77
2023-05-05T16:49:24.229Z,1.90
2023-05-05T16:51:53.454Z,2.00
2023-05-05T16:54:20.841Z,2.95
2023-05-05T16:56:48.148Z,1.88
2023-05-05T16:59:16.749Z,2.10
2023-05-05T17:01:44.106Z,2.90
2023-05-05T17:04:11.997Z,2.83
2023-05-05T17:06:39.396Z,3.17
2023-05-05T17:09:06.742Z,2.78
2023-05-05T17:11:34.082Z,2.50
2023-05-05T17:14:01.767Z,2.78
2023-05-05T17:16:29.180Z,2.65
2023-05-05T17:18:56.465Z,4.60
2023-05-05T17:21:24.083Z,2.22
2023-05-05T17:23:51.413Z,2.70
2023-05-05T17:26:18.761Z,2.45
2023-05-05T17:28:46.108Z,2.70
2023-05-05T17:31:13.572Z,2.42
2023-05-05T17:33:40.859Z,3.03
2023-05-05T17:36:08.337Z,5.43
2023-05-05T17:38:35.636Z,3.90
2023-05-05T17:41:02.965Z,2.90
2023-05-05T17:43:30.277Z,2.78
2023-05-05T17:45:57.602Z,2.95
2023-05-05T17:48:25.156Z,3.20
2023-05-05T17:50:52.569Z,3.55
2023-05-05T17:53:19.867Z,4.95
2023-05-05T17:55:47.169Z,4.65
2023-05-05T17:58:14.535Z,5.30
2023-05-05T18:00:41.898Z,3.70
2023-05-05T18:03:09.365Z,4.47
2023-05-05T18:05:36.763Z,4.15
2023-05-05T18:08:04.111Z,3.67
2023-05-05T18:10:31.548Z,2.97
2023-05-05T18:12:58.920Z,4.73
2023-05-05T18:15:26.522Z,4.25
2023-05-05T18:17:54.259Z,4.03
2023-05-05T18:20:21.619Z,4.05
2023-05-05T18:22:49.127Z,3.47
2023-05-05T18:25:16.614Z,3.63
2023-05-05T18:27:44.468Z,4.07
2023-05-05T18:30:12.019Z,3.20
2023-05-05T18:32:39.418Z,6.53
2023-05-05T18:35:07.412Z,4.50
2023-05-05T18:37:34.973Z,5.13
2023-05-05T18:40:02.361Z,3.67
2023-05-05T18:42:29.662Z,3.33
2023-05-05T18:44:57.015Z,3.50
2023-05-05T18:47:24.367Z,3.78
2023-05-05T18:49:51.667Z,3.47
2023-05-05T18:52:19.039Z,3.55
2023-05-05T18:54:46.324Z,4.93
2023-05-05T18:57:13.686Z,3.78
2023-05-05T18:59:41.023Z,5.13
2023-05-05T19:02:08.374Z,4.10
2023-05-05T19:04:37.944Z,5.35
2023-05-05T19:07:05.551Z,3.63
2023-05-05T19:09:32.868Z,4.15
2023-05-05T19:12:00.347Z,4.25
2023-05-05T19:14:27.660Z,4.07
2023-05-05T19:16:58.969Z,4.93
2023-05-05T19:19:26.462Z,3.47
2023-05-05T19:21:53.801Z,3.85
2023-05-05T19:24:21.169Z,3.45
2023-05-05T19:26:48.541Z,4.33
2023-05-05T19:29:16.193Z,4.05
2023-05-05T19:31:43.533Z,3.53
2023-05-05T19:34:11.316Z,4.55
2023-05-05T19:36:38.881Z,4.22
2023-05-05T19:39:06.236Z,4.03
2023-05-05T19:41:35.166Z,6.38
2023-05-05T19:44:03.105Z,5.20
2023-05-05T19:46:30.588Z,4.57
2023-05-05T19:48:57.933Z,4.28
2023-05-05T19:51:25.307Z,4.47
2023-05-05T19:53:52.677Z,5.43
2023-05-05T19:56:19.980Z,4.78
2023-05-05T19:58:54.477Z,5.90
2023-05-05T20:01:21.807Z,4.65
2023-05-05T20:03:49.376Z,4.53
2023-05-05T20:06:16.880Z,4.80
2023-05-05T20:08:44.229Z,4.93
2023-05-05T20:11:11.585Z,6.32
2023-05-05T20:13:39.043Z,5.50
2023-05-05T20:16:07.429Z,5.77
2023-05-05T20:18:34.752Z,5.40
2023-05-05T20:21:02.616Z,4.60
2023-05-05T20:23:30.041Z,6.88
2023-05-05T20:25:57.375Z,5.10
2023-05-05T20:28:24.795Z,5.37
2023-05-05T20:30:52.144Z,4.90
2023-05-05T20:33:19.807Z,4.10
2023-05-05T20:35:47.114Z,5.05
2023-05-05T20:38:14.523Z,4.20
2023-05-05T20:40:42.060Z,4.93
2023-05-05T20:43:09.362Z,4.85
2023-05-05T20:45:37.230Z,6.35
2023-05-05T20:48:07.396Z,6.05
2023-05-05T20:50:37.426Z,4.60
2023-05-05T20:53:05.193Z,5.10
2023-05-05T20:55:32.651Z,6.28
2023-05-05T20:58:00.067Z,5.00
2023-05-05T21:00:27.457Z,5.03
2023-05-05T21:02:56.873Z,4.20
2023-05-05T21:05:24.618Z,4.73
2023-05-05T21:07:54.180Z,4.72
2023-05-05T21:10:21.528Z,5.13
2023-05-05T21:12:48.825Z,7.82
2023-05-05T21:15:16.734Z,5.40
2023-05-05T21:17:44.283Z,5.37
2023-05-05T21:20:12.236Z,5.90
2023-05-05T21:22:39.985Z,4.78
2023-05-05T21:25:14.580Z,5.90
2023-05-05T21:27:42.071Z,5.63
2023-05-05T21:30:11.146Z,7.83
2023-05-05T21:32:39.522Z,6.05
2023-05-05T21:35:08.077Z,5.15
2023-05-05T21:37:35.606Z,5.68
2023-05-05T21:40:02.949Z,6.45
2023-05-05T21:42:30.888Z,6.30
2023-05-05T21:44:58.236Z,6.32
2023-05-05T21:47:25.617Z,5.50
2023-05-05T21:49:52.896Z,6.57
2023-05-05T21:52:20.272Z,7.07
2023-05-05T21:54:47.690Z,6.20
2023-05-05T21:57:15.066Z,7.38
2023-05-05T21:59:42.554Z,6.50
2023-05-05T22:02:09.804Z,8.23
2023-05-05T22:04:37.168Z,6.03
2023-05-05T22:07:04.506Z,6.43
2023-05-05T22:09:31.871Z,6.28
2023-05-05T22:11:59.215Z,7.55
2023-05-05T22:14:26.556Z,6.18
2023-05-05T22:16:53.878Z,7.32
2023-05-05T22:19:21.212Z,7.30
2023-05-05T22:21:48.525Z,8.52
2023-05-05T22:24:15.820Z,7.38
2023-05-05T22:26:43.448Z,7.65
2023-05-05T22:29:11.420Z,6.63
2023-05-05T22:31:38.976Z,6.90
2023-05-05T22:34:06.336Z,6.97
2023-05-05T22:36:33.645Z,8.65
2023-05-05T22:39:01.011Z,7.40
2023-05-05T22:41:28.359Z,8.52
2023-05-05T22:43:55.627Z,8.77
2023-05-05T22:46:22.929Z,10.98
2023-05-05T22:48:50.262Z,7.85
2023-05-05T22:51:17.860Z,8.93
2023-05-05T22:53:45.256Z,8.00
2023-05-05T22:56:12.618Z,8.87
2023-05-05T22:58:39.914Z,9.73
2023-05-05T23:01:07.740Z,6.93
2023-05-05T23:03:35.031Z,8.15
2023-05-05T23:06:02.368Z,9.13
2023-05-05T23:08:29.700Z,7.83
2023-05-05T23:10:57.217Z,7.75
2023-05-05T23:13:24.576Z,8.13
2023-05-05T23:15:51.986Z,9.05
2023-05-05T23:18:19.229Z,8.85
2023-05-05T23:20:46.518Z,8.77
2023-05-05T23:23:13.805Z,8.15
2023-05-05T23:25:41.152Z,8.80
2023-05-05T23:28:08.545Z,7.72
2023-05-05T23:30:35.923Z,8.27
2023-05-05T23:33:04.243Z,7.97
2023-05-05T23:35:31.612Z,8.57
2023-05-05T23:37:58.888Z,8.15
2023-05-05T23:40:26.250Z,9.23
2023-05-05T23:42:53.636Z,8.85
2023-05-05T23:45:20.933Z,8.87
2023-05-05T23:47:48.228Z,8.50
2023-05-05T23:50:15.744Z,9.45
2023-05-05T23:52:43.006Z,8.65
2023-05-05T23:55:10.862Z,9.68
2023-05-05T23:57:38.478Z,10.30
